Terminal Aerodrome Forecast
Issued by NWS Louisville, KY

Home | Current Version | Previous Version | Text Only | Print | Product List | Glossary On
Versions: 1 2 3 4 5 6 7 8 9 10 11 12 13
000
FTUS43 KLMK 151734
TAFLEX
TAF
KLEX 151734Z 1518/1618 23016G24KT P6SM SCT015 OVC025
     FM152230 29014G22KT P6SM -SHRA SCT010 BKN015
     FM160000 30013KT P6SM SCT015 BKN040
     FM160300 34008KT P6SM SCT040 SCT250
      TEMPO 1615/1618 BKN040=

USA.gov is the U.S. government's official web portal to all federal, state and local government web resources and services.